createdAt,value
2023-03-06T00:00:48.665Z,98.17
2023-03-06T00:03:16.475Z,98.17
2023-03-06T00:05:43.856Z,98.64
2023-03-06T00:08:11.388Z,98.94
2023-03-06T00:10:38.940Z,98.82
2023-03-06T00:13:07.472Z,99.01
2023-03-06T00:15:34.966Z,98.60
2023-03-06T00:18:05.760Z,98.53
2023-03-06T00:20:33.385Z,98.34
2023-03-06T00:23:00.910Z,98.61
2023-03-06T00:25:28.780Z,98.23
2023-03-06T00:27:56.188Z,98.15
2023-03-06T00:30:24.813Z,98.54
2023-03-06T00:32:52.982Z,98.72
2023-03-06T00:35:21.414Z,98.55
2023-03-06T00:37:49.497Z,97.38
2023-03-06T00:40:18.512Z,98.11
2023-03-06T00:42:46.416Z,98.09
2023-03-06T00:45:14.431Z,97.91
2023-03-06T00:47:42.263Z,97.92
2023-03-06T00:50:09.884Z,97.47
2023-03-06T00:52:37.236Z,97.38
2023-03-06T00:55:05.428Z,98.37
2023-03-06T00:57:32.681Z,98.25
2023-03-06T00:59:59.895Z,98.45
2023-03-06T01:02:27.199Z,98.39
2023-03-06T01:04:55.104Z,98.44
2023-03-06T01:07:22.424Z,98.35
2023-03-06T01:09:50.959Z,98.64
2023-03-06T01:12:18.196Z,98.65
2023-03-06T01:14:45.548Z,98.34
2023-03-06T01:17:12.783Z,98.23
2023-03-06T01:19:40.044Z,98.31
2023-03-06T01:22:07.261Z,98.26
2023-03-06T01:24:34.691Z,98.12
2023-03-06T01:27:02.002Z,98.17
2023-03-06T01:29:29.424Z,97.56
2023-03-06T01:31:56.728Z,97.25
2023-03-06T01:34:24.109Z,97.17
2023-03-06T01:36:51.374Z,97.21
2023-03-06T01:39:18.724Z,96.78
2023-03-06T01:41:46.880Z,97.05
2023-03-06T01:44:14.175Z,96.89
2023-03-06T01:46:42.423Z,96.80
2023-03-06T01:49:09.737Z,96.96
2023-03-06T01:52:03.423Z,96.61
2023-03-06T01:54:54.027Z,96.47
2023-03-06T01:57:34.106Z,96.55
2023-03-06T02:00:12.477Z,96.57
2023-03-06T02:03:04.511Z,96.65
2023-03-06T02:05:32.238Z,96.76
2023-03-06T02:07:59.540Z,97.01
2023-03-06T02:10:26.802Z,98.16
2023-03-06T02:12:54.491Z,96.99
2023-03-06T02:15:23.539Z,97.12
2023-03-06T02:17:51.682Z,97.10
2023-03-06T02:20:24.948Z,97.05
2023-03-06T02:22:55.444Z,97.01
2023-03-06T02:25:35.102Z,97.20
2023-03-06T02:28:03.874Z,97.32
2023-03-06T02:30:31.755Z,96.50
2023-03-06T02:32:59.313Z,97.31
2023-03-06T02:35:28.328Z,96.63
2023-03-06T02:37:57.306Z,97.82
2023-03-06T02:40:25.762Z,97.04
2023-03-06T02:42:57.431Z,96.66
2023-03-06T02:45:36.332Z,96.99
2023-03-06T02:48:03.974Z,97.13
2023-03-06T02:50:31.693Z,96.59
2023-03-06T02:52:58.991Z,96.35
2023-03-06T02:55:26.254Z,97.76
2023-03-06T02:57:55.350Z,97.07
2023-03-06T03:00:23.767Z,96.30
2023-03-06T03:02:51.118Z,95.67
2023-03-06T03:05:18.632Z,95.39
2023-03-06T03:07:50.340Z,95.79
2023-03-06T03:10:17.539Z,95.47
2023-03-06T03:12:45.447Z,94.88
2023-03-06T03:15:14.519Z,95.98
2023-03-06T03:17:41.912Z,95.43
2023-03-06T03:20:12.417Z,96.14
2023-03-06T03:22:40.121Z,95.60
2023-03-06T03:25:07.642Z,94.75
2023-03-06T03:27:34.855Z,94.93
2023-03-06T03:30:02.172Z,95.77
2023-03-06T03:32:30.008Z,95.18
2023-03-06T03:34:57.360Z,94.89
2023-03-06T03:37:25.991Z,94.69
2023-03-06T03:39:54.640Z,94.49
2023-03-06T03:42:22.288Z,94.80
2023-03-06T03:44:50.739Z,94.49
2023-03-06T03:47:20.823Z,95.50
2023-03-06T03:49:49.072Z,94.66
2023-03-06T03:52:16.321Z,94.85
2023-03-06T03:54:43.670Z,94.27
2023-03-06T03:57:10.932Z,95.92
2023-03-06T03:59:42.428Z,94.87
2023-03-06T04:02:21.947Z,95.73
2023-03-06T04:04:57.724Z,96.77
2023-03-06T04:07:25.131Z,96.54
2023-03-06T04:09:52.619Z,96.76
2023-03-06T04:12:20.016Z,96.07
2023-03-06T04:14:47.795Z,95.38
2023-03-06T04:17:15.593Z,96.04
2023-03-06T04:19:43.308Z,96.22
2023-03-06T04:22:11.760Z,95.89
2023-03-06T04:24:40.043Z,94.61
2023-03-06T04:27:07.380Z,94.49
2023-03-06T04:29:34.600Z,94.29
2023-03-06T04:32:02.509Z,94.54
2023-03-06T04:34:29.881Z,94.80
2023-03-06T04:36:57.693Z,94.98
2023-03-06T04:39:24.961Z,95.09
2023-03-06T04:41:52.196Z,95.64
2023-03-06T04:44:19.610Z,95.74
2023-03-06T04:46:46.799Z,95.64
2023-03-06T04:49:14.066Z,96.82
2023-03-06T04:51:41.271Z,97.45
2023-03-06T04:54:08.456Z,97.54
2023-03-06T04:56:35.659Z,97.04
2023-03-06T04:59:04.305Z,96.92
2023-03-06T05:01:31.507Z,96.02
2023-03-06T05:03:58.826Z,96.59
2023-03-06T05:06:25.984Z,96.26
2023-03-06T05:08:53.395Z,95.44
2023-03-06T05:11:20.607Z,95.03
2023-03-06T05:13:47.774Z,96.25
2023-03-06T05:16:15.429Z,95.80
2023-03-06T05:18:42.856Z,95.72
2023-03-06T05:21:10.264Z,95.05
2023-03-06T05:23:38.719Z,95.57
2023-03-06T05:26:10.004Z,95.25
2023-03-06T05:28:37.441Z,94.53
2023-03-06T05:31:05.239Z,95.50
2023-03-06T05:33:33.223Z,94.82
2023-03-06T05:36:00.356Z,94.22
2023-03-06T05:38:27.922Z,94.14
2023-03-06T05:40:55.151Z,94.04
2023-03-06T05:43:22.429Z,96.42
2023-03-06T05:45:50.683Z,96.32
2023-03-06T05:48:17.882Z,96.50
2023-03-06T05:50:45.200Z,96.98
2023-03-06T05:53:12.524Z,97.10
2023-03-06T05:55:40.195Z,96.87
2023-03-06T05:58:07.495Z,98.30
2023-03-06T06:00:34.830Z,98.34
2023-03-06T06:03:02.339Z,98.76
2023-03-06T06:05:29.565Z,99.46
2023-03-06T06:07:56.852Z,99.78
2023-03-06T06:10:24.044Z,98.00
2023-03-06T06:12:51.264Z,97.25
2023-03-06T06:15:18.624Z,96.78
2023-03-06T06:17:45.805Z,96.02
2023-03-06T06:20:13.448Z,95.43
2023-03-06T06:22:40.869Z,96.05
2023-03-06T06:25:08.370Z,94.77
2023-03-06T06:27:35.654Z,95.31
2023-03-06T06:30:03.412Z,95.57
2023-03-06T06:32:30.739Z,95.91
2023-03-06T06:34:58.203Z,95.45
2023-03-06T06:37:26.220Z,94.91
2023-03-06T06:39:53.451Z,94.00
2023-03-06T06:42:31.585Z,94.63
2023-03-06T06:45:05.822Z,94.75
2023-03-06T06:47:34.406Z,94.20
2023-03-06T06:50:01.750Z,95.23
2023-03-06T06:52:29.072Z,94.29
2023-03-06T06:54:56.773Z,92.45
2023-03-06T06:57:24.105Z,94.18
2023-03-06T06:59:53.346Z,94.66
2023-03-06T07:02:21.367Z,94.43
2023-03-06T07:05:02.544Z,94.11
2023-03-06T07:07:33.199Z,95.28
2023-03-06T07:10:00.506Z,95.64
2023-03-06T07:12:27.764Z,94.95
2023-03-06T07:14:55.062Z,95.86
2023-03-06T07:17:22.383Z,94.58
2023-03-06T07:19:50.221Z,94.38
2023-03-06T07:22:17.627Z,93.93
2023-03-06T07:24:44.880Z,92.88
2023-03-06T07:27:12.158Z,92.62
2023-03-06T07:29:39.439Z,92.35
2023-03-06T07:32:06.835Z,91.26
2023-03-06T07:34:34.074Z,90.18
2023-03-06T07:37:01.280Z,88.86
2023-03-06T07:39:30.138Z,88.86
2023-03-06T07:41:58.661Z,88.45
2023-03-06T07:44:26.019Z,88.77
2023-03-06T07:46:53.367Z,88.45
2023-03-06T07:49:20.742Z,88.67
2023-03-06T07:51:48.192Z,87.67
2023-03-06T07:54:15.384Z,88.36
2023-03-06T07:56:42.702Z,87.95
2023-03-06T07:59:11.091Z,88.01
2023-03-06T08:01:40.328Z,88.79
2023-03-06T08:04:07.648Z,89.44
2023-03-06T08:06:34.993Z,89.83
2023-03-06T08:09:02.386Z,90.08
2023-03-06T08:11:30.508Z,89.13
2023-03-06T08:13:58.122Z,89.78
2023-03-06T08:16:26.948Z,89.99
2023-03-06T08:18:54.636Z,90.09
2023-03-06T08:21:23.743Z,90.15
2023-03-06T08:23:51.272Z,89.77
2023-03-06T08:26:20.080Z,89.56
2023-03-06T08:28:47.488Z,89.88
2023-03-06T08:31:14.769Z,89.13
2023-03-06T08:33:42.236Z,89.08
2023-03-06T08:36:09.608Z,89.15
2023-03-06T08:38:36.849Z,89.25
2023-03-06T08:41:04.262Z,88.65
2023-03-06T08:43:31.752Z,90.09
2023-03-06T08:45:59.130Z,89.62
2023-03-06T08:48:26.484Z,88.93
2023-03-06T08:50:54.099Z,87.93
2023-03-06T08:53:22.730Z,87.35
2023-03-06T08:55:55.714Z,87.06
2023-03-06T08:58:22.913Z,86.62
2023-03-06T09:00:52.038Z,86.23
2023-03-06T09:03:19.911Z,86.19
2023-03-06T09:05:47.273Z,86.46
2023-03-06T09:08:14.495Z,85.85
2023-03-06T09:10:45.826Z,86.75
2023-03-06T09:13:13.091Z,86.29
2023-03-06T09:15:40.313Z,86.18
2023-03-06T09:18:07.549Z,86.24
2023-03-06T09:20:34.837Z,85.51
2023-03-06T09:23:02.196Z,86.25
2023-03-06T09:25:29.855Z,86.62
2023-03-06T09:28:10.399Z,85.68
2023-03-06T09:30:39.972Z,86.03
2023-03-06T09:33:07.194Z,85.69
2023-03-06T09:35:34.534Z,85.34
2023-03-06T09:38:01.738Z,84.70
2023-03-06T09:40:55.329Z,84.47
2023-03-06T09:43:43.227Z,83.86
2023-03-06T09:46:36.495Z,81.99
2023-03-06T09:49:11.916Z,81.04
2023-03-06T09:51:47.869Z,78.70
2023-03-06T09:54:16.493Z,78.85
2023-03-06T09:56:46.397Z,77.16
2023-03-06T09:59:17.419Z,76.53
2023-03-06T10:01:49.504Z,75.74
2023-03-06T10:04:16.799Z,77.12
2023-03-06T10:06:48.541Z,75.07
2023-03-06T10:09:15.838Z,74.17
2023-03-06T10:11:54.947Z,75.91
2023-03-06T10:14:38.829Z,75.64
2023-03-06T10:17:06.609Z,72.81
2023-03-06T10:19:35.214Z,72.70
2023-03-06T10:22:04.564Z,73.61
2023-03-06T10:24:50.714Z,73.44
2023-03-06T10:27:24.195Z,73.04
2023-03-06T10:30:10.286Z,74.48
2023-03-06T10:32:48.704Z,75.83
2023-03-06T10:35:22.295Z,76.74
2023-03-06T10:37:49.715Z,75.99
2023-03-06T10:40:22.111Z,75.69
2023-03-06T10:42:54.032Z,74.95
2023-03-06T10:45:35.205Z,75.77
2023-03-06T10:48:14.243Z,75.66
2023-03-06T10:50:41.573Z,75.49
2023-03-06T10:53:19.154Z,75.36
2023-03-06T10:55:54.768Z,74.83
2023-03-06T10:58:26.821Z,75.98
2023-03-06T11:01:20.400Z,75.97
2023-03-06T11:03:48.025Z,75.36
2023-03-06T11:06:16.522Z,75.03
2023-03-06T11:08:44.450Z,75.93
2023-03-06T11:11:13.449Z,75.18
2023-03-06T11:13:42.190Z,74.98
2023-03-06T11:16:15.207Z,74.62
2023-03-06T11:18:42.939Z,75.48
2023-03-06T11:21:31.474Z,75.82
2023-03-06T11:24:19.317Z,74.52
2023-03-06T11:26:50.482Z,73.46
2023-03-06T11:29:50.874Z,73.62
2023-03-06T11:32:21.121Z,72.89
2023-03-06T11:34:51.240Z,73.77
2023-03-06T11:37:37.228Z,72.61
2023-03-06T11:40:07.846Z,72.24
2023-03-06T11:42:40.858Z,74.12
2023-03-06T11:45:19.009Z,72.91
2023-03-06T11:47:49.885Z,73.10
2023-03-06T11:50:25.979Z,72.78
2023-03-06T11:52:57.211Z,71.93
2023-03-06T11:55:32.809Z,72.98
2023-03-06T11:58:18.814Z,73.13
2023-03-06T12:00:55.123Z,73.95
2023-03-06T12:03:22.417Z,72.72
2023-03-06T12:05:59.569Z,72.82
2023-03-06T12:08:45.761Z,72.30
2023-03-06T12:11:13.059Z,69.94
2023-03-06T12:13:46.795Z,69.59
2023-03-06T12:16:14.202Z,69.80
2023-03-06T12:18:47.492Z,70.16
2023-03-06T12:21:21.008Z,71.07
2023-03-06T12:23:54.084Z,71.11
2023-03-06T12:26:34.663Z,70.51
2023-03-06T12:29:05.055Z,69.72
2023-03-06T12:31:32.511Z,68.92
2023-03-06T12:34:06.085Z,70.31
2023-03-06T12:36:38.624Z,69.31
2023-03-06T12:39:10.637Z,70.10
2023-03-06T12:41:46.980Z,69.22
2023-03-06T12:44:20.252Z,68.23
2023-03-06T12:46:53.872Z,67.11
2023-03-06T12:49:31.510Z,66.58
2023-03-06T12:51:59.906Z,65.77
2023-03-06T12:54:31.469Z,66.55
2023-03-06T12:57:00.466Z,67.38
2023-03-06T12:59:44.601Z,66.03
2023-03-06T13:02:15.069Z,64.39
2023-03-06T13:04:45.756Z,62.68
2023-03-06T13:07:16.120Z,61.43
2023-03-06T13:09:43.369Z,62.52
2023-03-06T13:12:16.802Z,62.98
2023-03-06T13:14:53.882Z,62.23
2023-03-06T13:17:24.760Z,62.15
2023-03-06T13:20:11.159Z,60.93
2023-03-06T13:22:38.416Z,60.75
2023-03-06T13:25:21.216Z,61.04
2023-03-06T13:27:54.813Z,60.22
2023-03-06T13:30:22.268Z,60.30
2023-03-06T13:32:52.808Z,59.31
2023-03-06T13:35:32.571Z,59.27
2023-03-06T13:38:00.460Z,58.44
2023-03-06T13:40:36.650Z,57.92
2023-03-06T13:43:15.053Z,58.59
2023-03-06T13:45:43.804Z,58.24
2023-03-06T13:48:44.637Z,58.16
2023-03-06T13:51:24.013Z,58.99
2023-03-06T13:54:09.876Z,57.66
2023-03-06T13:56:46.295Z,57.26
2023-03-06T13:59:16.385Z,57.40
2023-03-06T14:02:11.625Z,57.98
2023-03-06T14:04:58.714Z,58.64
2023-03-06T14:07:27.958Z,59.20
2023-03-06T14:09:58.375Z,58.86
2023-03-06T14:12:29.074Z,59.47
2023-03-06T14:14:58.937Z,58.75
2023-03-06T14:17:29.740Z,58.25
2023-03-06T14:20:00.716Z,57.66
2023-03-06T14:22:28.110Z,57.92
2023-03-06T14:25:01.129Z,57.61
2023-03-06T14:27:39.075Z,57.51
2023-03-06T14:30:07.442Z,57.74
2023-03-06T14:32:34.837Z,58.06
2023-03-06T14:35:02.405Z,58.22
2023-03-06T14:37:29.760Z,56.91
2023-03-06T14:39:57.138Z,57.84
2023-03-06T14:42:25.635Z,58.68
2023-03-06T14:45:03.297Z,58.81
2023-03-06T14:47:34.772Z,59.63
2023-03-06T14:50:21.681Z,58.16
2023-03-06T14:52:50.599Z,57.51
2023-03-06T14:55:19.769Z,58.64
2023-03-06T14:57:49.156Z,59.40
2023-03-06T15:00:19.832Z,58.05
2023-03-06T15:02:47.943Z,58.42
2023-03-06T15:05:25.569Z,60.12
2023-03-06T15:07:54.387Z,59.33
2023-03-06T15:10:26.177Z,59.69
2023-03-06T15:12:53.789Z,60.04
2023-03-06T15:15:25.495Z,60.20
2023-03-06T15:17:53.459Z,60.28
2023-03-06T15:20:41.460Z,60.15
2023-03-06T15:23:20.065Z,59.94
2023-03-06T15:25:55.244Z,59.78
2023-03-06T15:28:22.490Z,59.86
2023-03-06T15:31:03.864Z,60.76
2023-03-06T15:33:31.175Z,60.31
2023-03-06T15:36:01.706Z,59.74
2023-03-06T15:38:39.647Z,58.99
2023-03-06T15:41:07.154Z,59.39
2023-03-06T15:43:39.379Z,60.04
2023-03-06T15:46:07.111Z,59.81
2023-03-06T15:48:35.443Z,61.72
2023-03-06T15:51:03.735Z,60.17
2023-03-06T15:53:31.077Z,60.20
2023-03-06T15:55:59.310Z,60.05
2023-03-06T15:58:27.910Z,59.36
2023-03-06T16:00:55.377Z,59.81
2023-03-06T16:03:22.702Z,60.24
2023-03-06T16:05:50.062Z,57.08
2023-03-06T16:08:17.387Z,57.31
2023-03-06T16:10:46.240Z,56.70
2023-03-06T16:13:19.484Z,56.95
2023-03-06T16:15:47.930Z,57.10
2023-03-06T16:18:15.173Z,57.27
2023-03-06T16:20:42.943Z,57.83
2023-03-06T16:23:10.696Z,57.23
2023-03-06T16:25:42.383Z,58.42
2023-03-06T16:28:14.807Z,58.21
2023-03-06T16:30:43.319Z,58.52
2023-03-06T16:33:11.363Z,59.34
2023-03-06T16:35:38.882Z,59.02
2023-03-06T16:38:06.128Z,59.74
2023-03-06T16:40:41.012Z,61.19
2023-03-06T16:43:09.337Z,60.27
2023-03-06T16:45:37.940Z,60.98
2023-03-06T16:48:06.000Z,59.77
2023-03-06T16:50:36.322Z,60.31
2023-03-06T16:53:04.164Z,59.94
2023-03-06T16:55:32.278Z,60.92
2023-03-06T16:57:59.568Z,59.75
2023-03-06T17:00:31.085Z,60.25
2023-03-06T17:02:59.269Z,62.22
2023-03-06T17:05:26.521Z,62.01
2023-03-06T17:07:53.829Z,62.92
2023-03-06T17:10:22.831Z,64.36
2023-03-06T17:12:50.160Z,65.85
2023-03-06T17:15:17.419Z,66.39
2023-03-06T17:17:44.721Z,68.09
2023-03-06T17:20:12.661Z,68.31
2023-03-06T17:22:40.608Z,67.43
2023-03-06T17:25:08.659Z,69.00
2023-03-06T17:27:36.472Z,69.89
2023-03-06T17:30:04.557Z,70.47
2023-03-06T17:32:32.801Z,70.02
2023-03-06T17:35:00.152Z,70.65
2023-03-06T17:37:27.625Z,72.58
2023-03-06T17:39:54.879Z,73.69
2023-03-06T17:42:22.153Z,74.25
2023-03-06T17:44:49.417Z,75.35
2023-03-06T17:47:17.113Z,74.34
2023-03-06T17:49:44.325Z,75.50
2023-03-06T17:52:11.834Z,75.92
2023-03-06T17:54:39.345Z,77.05
2023-03-06T17:57:06.639Z,77.84
2023-03-06T17:59:36.770Z,78.51
2023-03-06T18:02:06.326Z,79.51
2023-03-06T18:04:33.686Z,79.42
2023-03-06T18:07:01.098Z,79.75
2023-03-06T18:09:28.388Z,79.47
2023-03-06T18:11:55.635Z,79.95
2023-03-06T18:14:23.018Z,80.38
2023-03-06T18:16:50.581Z,82.45
2023-03-06T18:19:18.039Z,81.91
2023-03-06T18:21:47.385Z,81.32
2023-03-06T18:24:14.739Z,79.04
2023-03-06T18:26:42.623Z,77.58
2023-03-06T18:29:10.000Z,77.03
2023-03-06T18:31:38.427Z,77.04
2023-03-06T18:34:07.404Z,75.85
2023-03-06T18:36:35.114Z,77.17
2023-03-06T18:39:03.915Z,75.89
2023-03-06T18:41:31.752Z,75.96
2023-03-06T18:44:00.570Z,77.25
2023-03-06T18:46:32.137Z,77.78
2023-03-06T18:48:59.529Z,78.72
2023-03-06T18:51:27.222Z,78.39
2023-03-06T18:53:58.234Z,79.02
2023-03-06T18:56:26.244Z,77.88
2023-03-06T18:58:53.933Z,77.77
2023-03-06T19:01:22.601Z,78.09
2023-03-06T19:03:50.368Z,77.70
2023-03-06T19:06:18.205Z,80.23
2023-03-06T19:08:45.684Z,80.41
2023-03-06T19:11:14.361Z,81.70
2023-03-06T19:13:41.935Z,82.54
2023-03-06T19:16:09.997Z,81.93
2023-03-06T19:18:38.694Z,82.47
2023-03-06T19:21:09.079Z,82.86
2023-03-06T19:23:36.623Z,83.29
2023-03-06T19:26:03.932Z,84.15
2023-03-06T19:28:31.332Z,83.21
2023-03-06T19:30:58.575Z,83.46
2023-03-06T19:33:26.107Z,83.61
2023-03-06T19:35:53.650Z,84.09
2023-03-06T19:38:20.984Z,84.52
2023-03-06T19:40:48.817Z,84.32
2023-03-06T19:43:16.289Z,84.66
2023-03-06T19:45:44.799Z,85.29
2023-03-06T19:48:12.622Z,85.50
2023-03-06T19:50:42.495Z,85.59
2023-03-06T19:53:13.523Z,84.66
2023-03-06T19:55:40.990Z,84.83
2023-03-06T19:58:08.756Z,84.90
2023-03-06T20:00:36.020Z,86.10
2023-03-06T20:03:03.557Z,85.74
2023-03-06T20:05:31.378Z,86.39
2023-03-06T20:07:58.618Z,86.01
2023-03-06T20:10:26.011Z,86.94
2023-03-06T20:12:53.483Z,87.49
2023-03-06T20:15:22.333Z,88.04
2023-03-06T20:17:50.108Z,87.99
2023-03-06T20:20:17.812Z,88.09
2023-03-06T20:22:45.515Z,87.85
2023-03-06T20:25:13.100Z,88.15
2023-03-06T20:27:41.026Z,88.27
2023-03-06T20:30:09.468Z,88.00
2023-03-06T20:32:38.557Z,88.60
2023-03-06T20:35:06.523Z,89.21
2023-03-06T20:37:34.014Z,89.50
2023-03-06T20:40:01.384Z,90.03
2023-03-06T20:42:28.961Z,90.30
2023-03-06T20:44:56.503Z,90.56
2023-03-06T20:47:24.721Z,89.24
2023-03-06T20:49:53.212Z,89.43
2023-03-06T20:52:20.987Z,89.41
2023-03-06T20:54:48.946Z,88.71
2023-03-06T20:57:16.930Z,88.99
2023-03-06T20:59:45.880Z,89.23
2023-03-06T21:02:14.937Z,90.09
2023-03-06T21:04:42.709Z,89.29
2023-03-06T21:07:10.208Z,90.57
2023-03-06T21:09:39.677Z,90.05
2023-03-06T21:12:07.291Z,90.64
2023-03-06T21:14:34.628Z,90.24
2023-03-06T21:17:03.290Z,90.67
2023-03-06T21:19:30.619Z,91.56
2023-03-06T21:21:58.236Z,91.37
2023-03-06T21:24:25.563Z,91.61
2023-03-06T21:26:53.196Z,91.58
2023-03-06T21:29:20.348Z,92.21
2023-03-06T21:31:47.635Z,91.84
2023-03-06T21:34:14.950Z,91.54
2023-03-06T21:36:43.576Z,91.27
2023-03-06T21:39:10.855Z,92.01
2023-03-06T21:41:38.382Z,92.42
2023-03-06T21:44:06.218Z,92.25
2023-03-06T21:46:34.052Z,92.34
2023-03-06T21:49:02.122Z,92.72
2023-03-06T21:51:29.507Z,93.28
2023-03-06T21:53:56.935Z,93.21
2023-03-06T21:56:25.533Z,93.73
2023-03-06T21:58:53.105Z,94.18
2023-03-06T22:01:22.661Z,93.96
2023-03-06T22:03:50.067Z,95.13
2023-03-06T22:06:18.765Z,95.19
2023-03-06T22:08:46.530Z,95.25
2023-03-06T22:11:15.270Z,95.48
2023-03-06T22:13:43.199Z,95.39
2023-03-06T22:16:10.841Z,96.66
2023-03-06T22:18:38.163Z,96.25
2023-03-06T22:21:09.799Z,95.92
2023-03-06T22:23:37.112Z,95.37
2023-03-06T22:26:05.176Z,95.66
2023-03-06T22:28:32.572Z,95.97
2023-03-06T22:31:13.601Z,95.73
2023-03-06T22:33:41.154Z,95.95
2023-03-06T22:36:09.976Z,96.72
2023-03-06T22:38:42.083Z,97.39
2023-03-06T22:41:10.232Z,97.90
2023-03-06T22:43:37.584Z,97.39
2023-03-06T22:46:06.372Z,98.09
2023-03-06T22:48:34.192Z,98.16
2023-03-06T22:51:02.475Z,97.68
2023-03-06T22:53:29.741Z,98.60
2023-03-06T22:55:58.853Z,99.66
2023-03-06T22:58:26.392Z,100.00
2023-03-06T23:00:53.968Z,100.00
2023-03-06T23:03:21.289Z,100.00
2023-03-06T23:05:48.776Z,100.00
2023-03-06T23:08:15.984Z,100.00
2023-03-06T23:10:43.239Z,100.00
2023-03-06T23:13:28.984Z,100.00
2023-03-06T23:16:15.000Z,100.00
2023-03-06T23:19:00.885Z,100.00
2023-03-06T23:21:47.278Z,100.00
2023-03-06T23:24:36.663Z,100.00
2023-03-06T23:27:05.534Z,100.00
2023-03-06T23:29:33.153Z,100.00
2023-03-06T23:32:00.461Z,100.00
2023-03-06T23:34:27.662Z,100.00
2023-03-06T23:36:54.892Z,100.00
2023-03-06T23:39:22.770Z,100.00
2023-03-06T23:41:50.080Z,100.00
2023-03-06T23:44:17.315Z,100.00
2023-03-06T23:46:44.493Z,100.00
2023-03-06T23:49:11.764Z,100.00
2023-03-06T23:51:39.572Z,100.00
2023-03-06T23:54:07.080Z,100.00
2023-03-06T23:56:34.302Z,100.00
2023-03-06T23:59:01.592Z,100.00
